Time;durP1;ratioP1;P1;durP2;ratioP2;P2;SDS_P1;SDS_P2;PMS_P1;PMS_P2;Temp;Humidity;BMP_temperature;BMP_pressure;BME280_temperature;BME280_humidity;BME280_pressure;Samples;Min_cycle;Max_cycle;Signal;HPM_P1;HPM_P2
2023/03/12 10:35:24;;;;;;;27.95;5.05;;;;;;;13.14;66.54;100892.22;5087221;27;20384;-62
2023/03/12 10:38:00;;;;;;;22.60;5.00;;;;;;;13.47;65.03;100907.97;5085298;28;20036;-62
2023/03/12 10:40:33;;;;;;;24.30;5.85;;;;;;;13.60;64.26;100903.38;5080323;28;20057;-64
2023/03/12 10:43:01;;;;;;;28.58;5.22;;;;;;;13.77;64.13;100891.44;5087290;28;20055;-64
2023/03/12 10:45:50;;;;;;;30.65;5.47;;;;;;;14.02;63.74;100896.88;5086073;28;20068;-63
2023/03/12 10:48:22;;;;;;;25.55;6.50;;;;;;;13.84;64.19;100900.88;5082909;28;20051;-65
2023/03/12 10:51:07;;;;;;;32.47;5.82;;;;;;;13.62;64.13;100900.25;5084471;28;20056;-63
2023/03/12 10:53:34;;;;;;;28.90;5.75;;;;;;;13.88;64.29;100903.81;5081780;28;20041;-63
2023/03/12 10:56:06;;;;;;;31.58;6.35;;;;;;;14.03;63.40;100889.41;5083455;28;20055;-63
2023/03/12 10:59:04;;;;;;;20.85;4.57;;;;;;;13.83;62.13;100892.88;5086156;28;20282;-62
2023/03/12 11:01:34;;;;;;;33.72;6.90;;;;;;;13.82;63.44;100905.94;5078073;28;20087;-62
2023/03/12 11:04:16;;;;;;;32.13;6.07;;;;;;;13.88;63.17;100901.81;5074451;28;20538;-64
2023/03/12 11:07:03;;;;;;;30.20;5.70;;;;;;;13.76;62.91;100896.16;5082648;28;20067;-64
2023/03/12 11:09:31;;;;;;;32.85;6.80;;;;;;;13.69;63.94;100895.84;5082712;28;20411;-63
2023/03/12 11:11:58;;;;;;;34.03;6.63;;;;;;;13.90;63.84;100887.66;5078593;28;20036;-64
2023/03/12 11:14:28;;;;;;;28.45;5.45;;;;;;;13.84;62.09;100883.44;5105916;28;20067;-63
2023/03/12 11:16:56;;;;;;;30.97;5.57;;;;;;;13.74;61.18;100889.34;5076304;28;20056;-63
2023/03/12 11:19:32;;;;;;;24.30;4.75;;;;;;;13.60;62.05;100889.53;5075660;28;20049;-63
2023/03/12 11:22:02;;;;;;;28.33;5.63;;;;;;;13.95;62.74;100885.50;5087107;28;20048;-63
2023/03/12 11:24:29;;;;;;;;;;;;;;;13.96;61.58;100887.16;5083123;28;20059;-63
2023/03/12 11:27:06;;;;;;;28.67;5.82;;;;;;;14.14;61.48;100885.13;5076532;28;19921;-66
2023/03/12 11:29:39;;;;;;;27.58;6.47;;;;;;;14.43;61.46;100893.47;5078747;28;20055;-66
2023/03/12 11:32:19;;;;;;;29.23;5.72;;;;;;;13.92;61.94;100891.72;5088073;28;20067;-64
2023/03/12 11:34:48;;;;;;;28.52;5.22;;;;;;;14.02;63.22;100898.84;5083106;28;20059;-65
2023/03/12 11:37:47;;;;;;;32.33;5.90;;;;;;;13.94;63.85;100891.38;5078860;28;20063;-65
2023/03/12 11:40:19;;;;;;;27.80;6.22;;;;;;;14.08;63.28;100891.97;5102842;28;20052;-67
2023/03/12 11:42:46;;;;;;;30.55;6.35;;;;;;;14.51;61.94;100884.28;5089459;28;20051;-64
2023/03/12 11:45:36;;;;;;;31.92;5.65;;;;;;;14.60;61.71;100885.88;5090724;28;20040;-67
2023/03/12 11:48:29;;;;;;;27.95;5.32;;;;;;;14.51;61.94;100882.34;5079341;28;20500;-66
2023/03/12 11:51:09;;;;;;;30.77;5.72;;;;;;;14.61;61.47;100878.34;5060327;28;20071;-65
2023/03/12 11:53:45;;;;;;;28.75;5.63;;;;;;;14.37;62.04;100881.75;5069028;28;20052;-69
2023/03/12 11:56:52;;;;;;;30.80;6.10;;;;;;;14.63;61.75;100881.59;5066027;28;20063;-66
2023/03/12 11:59:43;;;;;;;29.33;5.65;;;;;;;14.78;61.04;100891.28;5006780;28;20070;-65
2023/03/12 12:02:29;;;;;;;25.38;5.93;;;;;;;14.68;61.08;100880.59;5069827;28;20061;-65
2023/03/12 12:05:28;;;;;;;29.70;5.78;;;;;;;14.55;60.82;100876.94;5078576;28;20399;-66
2023/03/12 12:08:10;;;;;;;28.75;6.50;;;;;;;14.61;61.15;100870.84;5077890;28;20048;-66
2023/03/12 12:10:48;;;;;;;23.60;5.43;;;;;;;14.45;60.32;100866.25;5076868;28;20048;-64
2023/03/12 12:13:40;;;;;;;22.75;5.75;;;;;;;14.28;61.02;100869.91;5074355;28;20060;-65
2023/03/12 12:16:21;;;;;;;27.48;5.20;;;;;;;14.40;61.05;100860.91;5069311;28;20483;-65
2023/03/12 12:19:02;;;;;;;28.52;6.22;;;;;;;14.80;59.58;100867.63;5065159;28;20059;-64
2023/03/12 12:21:40;;;;;;;24.88;5.28;;;;;;;14.17;61.55;100859.53;5070063;28;20051;-65
2023/03/12 12:24:13;;;;;;;30.20;6.53;;;;;;;14.31;61.53;100849.84;5068448;28;20059;-64
2023/03/12 12:27:05;;;;;;;27.35;6.05;;;;;;;14.46;61.71;100852.03;5074349;28;20055;-65
2023/03/12 12:29:51;;;;;;;21.63;5.03;;;;;;;14.57;60.99;100850.47;5080976;28;20048;-64
2023/03/12 12:32:29;;;;;;;32.20;5.40;;;;;;;14.73;59.56;100836.84;5076544;28;20053;-65
2023/03/12 12:35:18;;;;;;;27.20;5.43;;;;;;;14.57;60.50;100841.38;5056064;28;20049;-64
2023/03/12 12:38:07;;;;;;;27.15;5.68;;;;;;;14.85;59.64;100825.00;5076063;28;20064;-67
2023/03/12 12:40:37;;;;;;;25.00;6.15;;;;;;;14.92;57.62;100820.53;5062739;28;20420;-63
2023/03/12 12:43:11;;;;;;;;;;;;;;;14.59;57.82;100811.34;5056692;28;20044;-64
2023/03/12 12:45:40;;;;;;;22.45;4.78;;;;;;;14.41;57.38;100807.09;5068886;28;19925;-64
2023/03/12 12:48:18;;;;;;;23.75;4.78;;;;;;;14.66;57.17;100808.84;5064667;28;20064;-65
2023/03/12 12:50:46;;;;;;;20.27;4.57;;;;;;;14.68;56.78;100810.13;5076647;28;20067;-66
2023/03/12 12:53:22;;;;;;;19.98;4.10;;;;;;;14.75;55.99;100794.91;5071799;28;20052;-68
2023/03/12 12:56:16;;;;;;;18.90;4.30;;;;;;;14.68;56.93;100805.75;5059951;28;20063;-64
2023/03/12 12:59:07;;;;;;;24.30;5.30;;;;;;;14.91;56.69;100805.03;5066130;28;20112;-65
2023/03/12 13:01:35;;;;;;;22.30;5.00;;;;;;;14.97;56.39;100808.41;5075289;28;20044;-64
2023/03/12 13:04:14;;;;;;;26.38;5.50;;;;;;;15.16;55.98;100798.44;5074889;28;20060;-63
2023/03/12 13:07:15;;;;;;;22.13;4.53;;;;;;;15.37;55.06;100796.44;5067299;28;20415;-64
2023/03/12 13:09:45;;;;;;;24.55;5.30;;;;;;;15.22;54.85;100796.28;5076024;28;20052;-65
2023/03/12 13:12:24;;;;;;;29.45;5.07;;;;;;;15.03;55.63;100788.44;5075516;28;20503;-65
2023/03/12 13:14:54;;;;;;;26.17;5.15;;;;;;;15.06;55.97;100775.88;5065566;28;20040;-64
2023/03/12 13:17:34;;;;;;;22.20;5.70;;;;;;;15.34;55.44;100783.22;5080967;28;20712;-64
2023/03/12 13:20:14;;;;;;;24.42;5.10;;;;;;;15.20;55.60;100777.16;5082701;28;20048;-65
2023/03/12 13:23:00;;;;;;;18.10;4.40;;;;;;;15.24;54.67;100780.06;5074569;28;20114;-64
2023/03/12 13:25:57;;;;;;;22.60;4.97;;;;;;;15.29;56.03;100774.31;5062721;28;20059;-64
2023/03/12 13:28:24;;;;;;;21.30;5.00;;;;;;;15.34;55.97;100782.41;5061647;28;20060;-65
2023/03/12 13:30:52;;;;;;;20.38;5.13;;;;;;;15.47;56.32;100773.81;5060884;28;20054;-64
2023/03/12 13:33:38;;;;;;;26.75;6.35;;;;;;;15.49;56.15;100782.59;5075454;28;20064;-67
2023/03/12 13:36:27;;;;;;;27.50;5.78;;;;;;;15.54;55.47;100782.38;5072798;28;20052;-65
2023/03/12 13:38:57;;;;;;;22.27;5.07;;;;;;;15.48;56.03;100783.72;5043885;28;20064;-64
2023/03/12 13:41:53;;;;;;;19.80;4.95;;;;;;;15.56;55.58;100779.25;5070040;28;20056;-64
2023/03/12 13:44:35;;;;;;;27.38;5.55;;;;;;;15.79;55.22;100778.44;5074278;28;20148;-63
2023/03/12 13:47:23;;;;;;;23.27;5.70;;;;;;;16.04;54.24;100764.56;5074746;28;20056;-65
2023/03/12 13:50:07;;;;;;;25.10;4.93;;;;;;;15.97;54.36;100776.25;5072590;28;20056;-65
2023/03/12 13:52:50;;;;;;;22.88;4.88;;;;;;;16.02;54.50;100767.69;5065111;28;20056;-64
2023/03/12 13:55:23;;;;;;;22.63;5.60;;;;;;;16.19;54.72;100758.28;5044112;28;20053;-64
2023/03/12 13:58:14;;;;;;;21.17;5.22;;;;;;;15.87;54.89;100756.44;5070803;28;20056;-64
2023/03/12 14:00:48;;;;;;;;;;;;;;;15.58;55.67;100761.09;5089786;28;20063;-65
2023/03/12 14:03:25;;;;;;;22.50;4.70;;;;;;;15.83;55.67;100756.34;5059701;28;20398;-64
2023/03/12 14:06:09;;;;;;;19.70;4.40;;;;;;;15.88;54.89;100742.25;5081801;28;20048;-65
2023/03/12 14:08:45;;;;;;;26.73;5.63;;;;;;;16.17;54.62;100743.94;5072798;28;20053;-65
2023/03/12 14:11:43;;;;;;;20.67;4.97;;;;;;;16.03;54.48;100746.25;5070306;28;20067;-65
2023/03/12 14:14:25;;;;;;;22.95;5.30;;;;;;;16.03;54.20;100747.09;5022112;28;20061;-65
2023/03/12 14:16:57;;;;;;;22.23;4.70;;;;;;;15.91;55.01;100747.09;5076483;28;20044;-64
2023/03/12 14:19:27;;;;;;;17.35;4.47;;;;;;;16.27;54.69;100749.81;5054319;28;20068;-63
2023/03/12 14:21:56;;;;;;;17.38;4.43;;;;;;;16.35;55.12;100745.28;5067979;28;20053;-64
2023/03/12 14:24:31;;;;;;;17.75;4.43;;;;;;;16.36;55.07;100739.38;5061286;28;20048;-65
2023/03/12 14:27:00;;;;;;;23.83;5.85;;;;;;;16.68;54.27;100734.78;5074650;28;20036;-65
2023/03/12 14:29:36;;;;;;;23.58;5.22;;;;;;;16.66;54.13;100737.13;5075150;28;20036;-64
2023/03/12 14:32:12;;;;;;;21.48;4.47;;;;;;;16.51;53.95;100724.75;5074079;28;20045;-64
2023/03/12 14:34:44;;;;;;;21.20;4.28;;;;;;;16.41;54.10;100722.44;5054811;28;20061;-64
2023/03/12 14:37:28;;;;;;;20.20;5.07;;;;;;;16.72;53.35;100719.00;5056426;28;20053;-65
2023/03/12 14:40:07;;;;;;;18.17;4.40;;;;;;;16.54;53.39;100712.94;5058567;28;20496;-65
2023/03/12 14:42:35;;;;;;;20.55;4.15;;;;;;;16.49;54.44;100709.59;5053713;28;20048;-66
2023/03/12 14:45:33;;;;;;;20.25;4.25;;;;;;;16.46;53.76;100707.47;5069989;28;20052;-64
2023/03/12 14:48:01;;;;;;;16.45;3.75;;;;;;;16.26;53.91;100706.53;5066551;28;20048;-65
2023/03/12 14:50:36;;;;;;;17.35;4.35;;;;;;;16.52;53.17;100712.50;5059300;28;20044;-65
2023/03/12 14:53:30;;;;;;;15.98;4.18;;;;;;;16.49;52.97;100715.94;5080333;28;20045;-65
2023/03/12 14:56:14;;;;;;;15.48;3.90;;;;;;;16.10;53.53;100727.03;5054946;28;20044;-64
2023/03/12 14:58:45;;;;;;;19.83;4.30;;;;;;;16.11;53.66;100725.91;5062126;28;20076;-69
2023/03/12 15:01:25;;;;;;;16.95;4.38;;;;;;;16.14;53.96;100722.41;5070577;28;20048;-70
2023/03/12 15:03:54;;;;;;;20.40;4.68;;;;;;;16.14;53.92;100719.63;5055538;28;20057;-69
2023/03/12 15:06:32;;;;;;;16.25;3.30;;;;;;;16.15;53.40;100730.38;5062938;28;20095;-68
2023/03/12 15:09:03;;;;;;;14.68;3.70;;;;;;;16.22;53.67;100725.03;5047425;28;20497;-69
2023/03/12 15:11:32;;;;;;;18.48;4.57;;;;;;;16.06;53.49;100715.00;5074265;28;20060;-69
2023/03/12 15:14:12;;;;;;;20.95;4.22;;;;;;;16.09;54.13;100714.31;5075474;28;20059;-68
2023/03/12 15:16:39;;;;;;;20.40;3.65;;;;;;;16.36;54.33;100703.25;5040415;28;20423;-68
2023/03/12 15:19:11;;;;;;;17.00;3.70;;;;;;;16.05;54.60;100705.88;5071912;28;20052;-69
2023/03/12 15:21:39;;;;;;;16.50;3.83;;;;;;;15.94;55.10;100701.13;5091591;28;20044;-67
2023/03/12 15:24:12;;;;;;;19.77;4.60;;;;;;;15.76;55.93;100701.38;5058435;28;20511;-68
2023/03/12 15:26:40;;;;;;;17.63;3.67;;;;;;;15.81;56.24;100699.53;5074424;28;20055;-68
2023/03/12 15:29:13;;;;;;;18.27;4.38;;;;;;;15.62;57.13;100697.34;5079318;28;20471;-69
2023/03/12 15:31:43;;;;;;;20.17;3.80;;;;;;;15.96;56.63;100699.63;5077743;28;20056;-70
2023/03/12 15:34:12;;;;;;;15.55;4.13;;;;;;;15.77;56.62;100691.91;5071317;28;20053;-70
2023/03/12 15:36:47;;;;;;;20.45;4.20;;;;;;;16.11;56.10;100693.34;5070979;28;20044;-69
2023/03/12 15:39:27;;;;;;;17.95;3.85;;;;;;;15.73;56.87;100684.59;5068586;28;20056;-70
2023/03/12 15:41:55;;;;;;;12.35;3.10;;;;;;;17.00;57.74;100683.59;5074767;28;20495;-52
2023/03/12 15:44:25;;;;;;;19.83;3.92;;;;;;;17.53;52.55;100676.66;5065639;28;20048;-56
2023/03/12 15:47:06;;;;;;;15.45;3.75;;;;;;;18.38;50.66;100682.16;5083624;28;20048;-52
2023/03/12 15:49:36;;;;;;;16.65;3.65;;;;;;;18.89;49.25;100684.47;5071663;28;20052;-51
2023/03/12 15:52:25;;;;;;;15.40;3.95;;;;;;;19.21;48.53;100676.69;5071884;28;20045;-54
2023/03/12 15:55:10;;;;;;;14.00;3.70;;;;;;;19.48;47.73;100681.16;5068321;28;20059;-52
2023/03/12 15:57:48;;;;;;;17.10;3.72;;;;;;;19.55;47.68;100680.47;5069848;28;20037;-54
2023/03/12 16:00:19;;;;;;;14.88;3.60;;;;;;;19.25;46.54;100671.16;5065014;28;20048;-51
2023/03/12 16:02:47;;;;;;;;;;;;;;;19.17;48.00;100675.81;5069995;28;20052;-57
2023/03/12 16:05:15;;;;;;;16.38;4.05;;;;;;;19.20;47.32;100672.25;5066486;28;20299;-54
2023/03/12 16:07:43;;;;;;;18.00;3.83;;;;;;;18.85;48.53;100679.97;5075250;28;20127;-57
2023/03/12 16:10:13;;;;;;;18.77;4.45;;;;;;;18.80;47.64;100674.69;5065185;28;20057;-51
2023/03/12 16:12:42;;;;;;;14.02;3.58;;;;;;;19.20;47.90;100663.88;5074034;28;20055;-53
2023/03/12 16:15:20;;;;;;;16.63;3.30;;;;;;;19.52;47.50;100665.28;5067133;28;20056;-54
2023/03/12 16:17:47;;;;;;;16.15;3.80;;;;;;;19.49;47.07;100663.19;5068429;28;20056;-55
2023/03/12 16:20:16;;;;;;;14.93;4.35;;;;;;;19.57;47.10;100666.94;5068610;28;20049;-54
2023/03/12 16:22:44;;;;;;;15.15;4.40;;;;;;;19.62;46.91;100658.22;5066464;28;20056;-55
2023/03/12 16:25:12;;;;;;;13.98;4.20;;;;;;;19.58;46.89;100658.16;5072705;28;20450;-58
2023/03/12 16:27:56;;;;;;;16.13;4.03;;;;;;;19.58;47.44;100652.56;5068543;28;20037;-55
2023/03/12 16:30:27;;;;;;;17.35;4.00;;;;;;;19.68;46.93;100640.75;5057833;28;20056;-53
2023/03/12 16:32:56;;;;;;;17.25;4.65;;;;;;;19.40;46.27;100650.69;5075415;28;20099;-55
2023/03/12 16:35:26;;;;;;;13.07;3.57;;;;;;;19.44;47.48;100640.38;5064587;28;20056;-48
2023/03/12 16:37:54;;;;;;;17.30;4.03;;;;;;;19.54;47.27;100643.34;5071999;28;20377;-52
2023/03/12 16:40:22;;;;;;;15.55;4.35;;;;;;;19.73;46.69;100632.06;5075558;28;20036;-53
2023/03/12 16:43:02;;;;;;;17.25;4.53;;;;;;;19.76;46.38;100647.25;5073721;28;20060;-54
2023/03/12 16:45:30;;;;;;;20.35;4.90;;;;;;;19.61;46.84;100639.84;5075156;28;20056;-56
2023/03/12 16:48:00;;;;;;;19.48;4.75;;;;;;;19.65;46.91;100644.31;5079537;28;20044;-54
2023/03/12 16:50:28;;;;;;;20.75;4.60;;;;;;;19.57;47.29;100634.22;5072550;28;20067;-54
2023/03/12 16:52:55;;;;;;;19.25;4.75;;;;;;;19.65;46.89;100623.97;5072596;28;20064;-55
2023/03/12 16:55:26;;;;;;;22.05;5.28;;;;;;;19.43;47.61;100625.59;5074067;28;20056;-54
2023/03/12 16:57:58;;;;;;;20.50;4.32;;;;;;;19.55;47.50;100622.59;5074724;28;20044;-54
2023/03/12 17:00:29;;;;;;;22.88;4.97;;;;;;;19.41;47.73;100613.19;5074605;28;20051;-54
2023/03/12 17:02:57;;;;;;;19.95;4.40;;;;;;;19.75;47.12;100606.53;5068996;28;20053;-56
2023/03/12 17:05:27;;;;;;;19.52;5.20;;;;;;;19.59;47.99;100598.31;5066228;28;20056;-51
2023/03/12 17:07:54;;;;;;;20.85;4.97;;;;;;;19.85;47.28;100591.88;5066796;28;20419;-51
2023/03/12 17:10:22;;;;;;;25.08;5.22;;;;;;;19.56;47.66;100592.69;5071123;28;20056;-54
2023/03/12 17:12:50;;;;;;;19.77;4.95;;;;;;;19.83;47.35;100599.84;5073929;28;20052;-54
2023/03/12 17:15:21;;;;;;;20.95;5.63;;;;;;;19.83;47.21;100594.25;5069469;28;20407;-54
2023/03/12 17:17:48;;;;;;;23.35;8.77;;;;;;;19.93;47.49;100579.59;5064540;28;20053;-58
2023/03/12 17:20:18;;;;;;;20.38;8.30;;;;;;;20.00;47.61;100565.72;5064705;28;20392;-56
2023/03/12 17:22:45;;;;;;;20.45;6.43;;;;;;;19.78;48.02;100555.44;5073605;28;20045;-56
2023/03/12 17:25:21;;;;;;;26.48;6.72;;;;;;;19.73;47.76;100544.59;5067077;28;20048;-57
2023/03/12 17:27:50;;;;;;;25.45;5.15;;;;;;;19.71;48.62;100550.59;5068677;28;20032;-57
2023/03/12 17:30:18;;;;;;;23.20;5.80;;;;;;;19.74;48.08;100541.44;5072854;28;20036;-54
2023/03/12 17:32:45;;;;;;;23.52;5.88;;;;;;;19.61;48.59;100544.84;5071078;28;20052;-54
2023/03/12 17:35:12;;;;;;;27.13;6.55;;;;;;;18.71;49.63;100560.53;5086017;28;20063;-69
2023/03/12 17:37:40;;;;;;;32.65;6.10;;;;;;;17.73;52.11;100564.13;5063614;28;20041;-69
2023/03/12 17:40:08;;;;;;;29.00;7.18;;;;;;;17.25;53.42;100557.03;5069162;28;20492;-70
2023/03/12 17:42:37;;;;;;;28.88;5.97;;;;;;;17.17;53.84;100551.66;5068342;28;20047;-70
2023/03/12 17:45:06;;;;;;;25.95;6.18;;;;;;;16.40;56.32;100564.34;5069583;28;20048;-70
2023/03/12 17:47:34;;;;;;;30.83;6.82;;;;;;;16.11;57.80;100557.19;5072825;28;20046;-71
2023/03/12 17:50:03;;;;;;;30.40;6.20;;;;;;;15.86;58.94;100557.63;5066044;28;20067;-70
2023/03/12 17:52:31;;;;;;;32.40;6.30;;;;;;;15.81;59.34;100555.09;5069097;28;20056;-72
2023/03/12 17:54:59;;;;;;;26.52;5.50;;;;;;;15.70;59.85;100561.16;5075360;28;20060;-70
2023/03/12 17:57:26;;;;;;;27.77;6.13;;;;;;;15.57;60.25;100547.63;5071546;28;20044;-71
2023/03/12 17:59:54;;;;;;;28.33;6.82;;;;;;;15.22;62.04;100560.41;5072988;28;20056;-71
2023/03/12 18:02:21;;;;;;;26.58;6.80;;;;;;;15.30;62.06;100549.19;5071155;28;20389;-71
2023/03/12 18:04:49;;;;;;;28.42;6.13;;;;;;;15.28;62.22;100550.66;5072536;28;20048;-72
2023/03/12 18:07:16;;;;;;;28.67;7.05;;;;;;;15.12;63.15;100549.75;5067699;28;20056;-71
2023/03/12 18:09:44;;;;;;;27.73;7.18;;;;;;;14.95;63.71;100548.03;5071823;28;20049;-70
2023/03/12 18:12:13;;;;;;;30.42;6.95;;;;;;;15.05;63.85;100542.03;5069106;28;20056;-69
2023/03/12 18:14:40;;;;;;;30.95;7.00;;;;;;;15.01;64.20;100543.88;5071675;28;20060;-70
2023/03/12 18:17:07;;;;;;;29.65;7.18;;;;;;;14.96;64.40;100543.31;5053734;28;20061;-70
2023/03/12 18:19:35;;;;;;;26.73;6.85;;;;;;;14.73;65.69;100545.72;5067980;28;20052;-70
2023/03/12 18:22:02;;;;;;;28.30;6.55;;;;;;;14.78;65.57;100542.72;5063640;28;20040;-69
2023/03/12 18:24:30;;;;;;;29.20;7.00;;;;;;;14.75;66.00;100543.38;5067523;28;20407;-69
2023/03/12 18:26:58;;;;;;;31.38;7.40;;;;;;;14.64;66.48;100542.25;5064362;28;20067;-70
2023/03/12 18:29:25;;;;;;;30.70;7.45;;;;;;;14.74;66.33;100536.25;5072504;28;20049;-71
2023/03/12 18:31:53;;;;;;;37.65;8.55;;;;;;;14.61;67.08;100531.81;5069743;28;20699;-68
2023/03/12 18:34:22;;;;;;;28.88;7.53;;;;;;;14.59;67.46;100545.25;5065234;28;20055;-68
2023/03/12 18:36:49;;;;;;;31.33;7.87;;;;;;;14.70;67.21;100540.06;5068243;28;20071;-69
2023/03/12 18:39:17;;;;;;;29.77;7.53;;;;;;;14.66;67.64;100526.06;5069717;28;20044;-69
2023/03/12 18:41:44;;;;;;;38.35;8.75;;;;;;;14.64;67.72;100522.84;5073608;28;20048;-68
2023/03/12 18:44:12;;;;;;;29.98;8.00;;;;;;;14.57;68.23;100519.81;5070853;28;20057;-69
2023/03/12 18:46:39;;;;;;;31.85;6.75;;;;;;;14.60;68.37;100513.59;5069287;28;20068;-68
2023/03/12 18:49:08;;;;;;;30.77;7.00;;;;;;;14.68;68.11;100512.66;5069932;28;20609;-70
2023/03/12 18:51:35;;;;;;;31.60;7.05;;;;;;;14.72;67.98;100499.72;5072640;28;20087;-68
2023/03/12 18:54:02;;;;;;;36.35;8.77;;;;;;;14.65;68.37;100500.31;5069313;28;20415;-69
2023/03/12 18:56:30;;;;;;;34.05;8.20;;;;;;;14.70;68.40;100506.78;5080362;28;20048;-69
2023/03/12 18:58:57;;;;;;;30.45;8.15;;;;;;;14.79;68.16;100486.09;5077877;28;20052;-69
2023/03/12 19:01:25;;;;;;;31.17;7.70;;;;;;;14.98;67.50;100491.88;5076198;28;20495;-69
2023/03/12 19:03:52;;;;;;;34.17;8.98;;;;;;;14.65;68.46;100491.19;5078230;28;20044;-68
2023/03/12 19:06:19;;;;;;;30.75;8.88;;;;;;;14.74;68.58;100489.09;5070983;28;20515;-68
2023/03/12 19:08:47;;;;;;;30.65;8.52;;;;;;;14.75;68.48;100482.41;5073708;28;20049;-69
2023/03/12 19:11:15;;;;;;;30.73;8.02;;;;;;;14.91;67.74;100488.03;5075372;28;20052;-69
2023/03/12 19:13:42;;;;;;;25.30;6.88;;;;;;;14.71;68.33;100477.91;5069548;28;20067;-68
2023/03/12 19:16:11;;;;;;;26.27;7.22;;;;;;;14.83;68.13;100475.13;5075449;28;20539;-69
2023/03/12 19:18:38;;;;;;;28.40;6.50;;;;;;;14.78;68.42;100465.09;5076755;28;20041;-69
2023/03/12 19:21:06;;;;;;;27.15;6.75;;;;;;;14.57;68.83;100467.16;5071116;28;20067;-69
2023/03/12 19:23:34;;;;;;;29.27;5.97;;;;;;;14.68;68.88;100457.22;5071614;28;20049;-70
2023/03/12 19:26:02;;;;;;;22.08;5.07;;;;;;;14.74;68.61;100461.38;5076305;28;20059;-68
2023/03/12 19:28:30;;;;;;;26.70;6.35;;;;;;;14.67;69.08;100452.84;5067962;28;20053;-69
2023/03/12 19:30:59;;;;;;;29.05;7.15;;;;;;;14.83;68.35;100447.38;5073160;28;20048;-69
2023/03/12 19:33:27;;;;;;;27.38;6.50;;;;;;;14.88;68.16;100456.28;5069570;28;20049;-68
2023/03/12 19:35:55;;;;;;;21.67;6.85;;;;;;;14.86;68.65;100443.91;5069820;28;20048;-70
2023/03/12 19:38:22;;;;;;;29.48;6.20;;;;;;;14.89;69.20;100443.25;5073372;28;20143;-67
2023/03/12 19:40:54;;;;;;;24.30;6.55;;;;;;;14.96;69.17;100454.56;5070596;28;20056;-69
2023/03/12 19:43:22;;;;;;;21.95;5.40;;;;;;;14.78;70.57;100448.44;5078760;28;20063;-69
2023/03/12 19:45:51;;;;;;;26.35;6.68;;;;;;;14.97;70.43;100442.28;5074595;28;20048;-69
2023/03/12 19:48:19;;;;;;;23.63;5.55;;;;;;;14.95;70.71;100448.19;5071802;28;20052;-70
2023/03/12 19:50:46;;;;;;;28.40;5.60;;;;;;;14.82;71.88;100440.25;5070901;28;20044;-71
2023/03/12 19:53:14;;;;;;;22.83;5.28;;;;;;;14.88;71.96;100431.34;5072288;28;20056;-69
2023/03/12 19:55:41;;;;;;;24.85;5.78;;;;;;;14.68;73.63;100440.56;5072620;28;20047;-69
2023/03/12 19:58:08;;;;;;;22.75;5.72;;;;;;;14.54;75.78;100423.47;5067812;28;20045;-67
2023/03/12 20:00:36;;;;;;;21.80;5.55;;;;;;;14.67;76.18;100422.34;5067186;28;20091;-67
2023/03/12 20:03:03;;;;;;;18.92;4.63;;;;;;;14.62;77.13;100433.66;5074605;28;20053;-68
2023/03/12 20:05:31;;;;;;;21.98;5.80;;;;;;;14.53;78.49;100425.47;5081189;28;20056;-67
2023/03/12 20:07:58;;;;;;;17.80;5.00;;;;;;;14.53;79.39;100422.69;5073325;28;20143;-66
2023/03/12 20:10:28;;;;;;;20.48;5.53;;;;;;;14.36;81.14;100419.34;5074033;28;20055;-68
2023/03/12 20:12:55;;;;;;;22.10;4.85;;;;;;;14.32;82.10;100415.63;5058328;28;20061;-67
2023/03/12 20:15:22;;;;;;;20.08;5.47;;;;;;;14.31;82.98;100422.34;5071362;28;20048;-68
2023/03/12 20:17:53;;;;;;;27.02;9.65;;;;;;;14.35;83.17;100410.22;5070048;28;20345;-69
2023/03/12 20:20:20;;;;;;;17.73;4.90;;;;;;;14.33;83.41;100414.50;5074522;28;20071;-69
2023/03/12 20:22:48;;;;;;;21.88;6.68;;;;;;;14.42;83.09;100404.09;5076349;28;20059;-70
2023/03/12 20:25:15;;;;;;;16.35;4.32;;;;;;;14.30;83.94;100406.84;5073406;28;20056;-71
2023/03/12 20:27:43;;;;;;;17.13;4.88;;;;;;;14.19;85.08;100397.38;5077475;28;20059;-71
2023/03/12 20:30:11;;;;;;;17.73;5.15;;;;;;;14.16;86.16;100386.97;5069475;28;20051;-69
2023/03/12 20:32:38;;;;;;;17.67;5.22;;;;;;;14.29;85.80;100392.22;5074997;28;20064;-69
2023/03/12 20:35:06;;;;;;;22.35;7.47;;;;;;;14.26;86.20;100392.09;5070920;28;20065;-69
2023/03/12 20:37:33;;;;;;;17.48;4.57;;;;;;;14.04;88.18;100386.94;5073185;28;20052;-69
2023/03/12 20:40:01;;;;;;;13.98;4.43;;;;;;;13.77;89.68;100393.16;5073398;28;20468;-72
2023/03/12 20:42:28;;;;;;;17.77;5.65;;;;;;;13.60;91.76;100404.41;5069459;28;20063;-65
2023/03/12 20:44:55;;;;;;;14.68;4.22;;;;;;;13.95;90.70;100386.25;5071008;28;20036;-65
2023/03/12 20:47:23;;;;;;;13.73;4.50;;;;;;;13.93;90.40;100383.81;5071133;28;20055;-66
2023/03/12 20:49:50;;;;;;;15.93;5.45;;;;;;;14.12;89.73;100378.53;5070095;28;20048;-65
2023/03/12 20:52:17;;;;;;;16.42;4.32;;;;;;;14.04;89.78;100367.56;5073021;28;20840;-67
2023/03/12 20:54:45;;;;;;;15.55;3.28;;;;;;;13.88;90.90;100370.19;5069003;28;20372;-67
2023/03/12 20:57:12;;;;;;;12.98;3.78;;;;;;;13.93;91.05;100369.97;5075414;28;20431;-69
2023/03/12 20:59:39;;;;;;;15.18;4.20;;;;;;;14.00;91.07;100361.13;5071819;28;20048;-67
2023/03/12 21:02:11;;;;;;;16.30;3.75;;;;;;;13.98;91.46;100355.91;5074124;28;20041;-67
2023/03/12 21:04:39;;;;;;;15.88;3.75;;;;;;;13.84;92.32;100360.19;5080967;28;20048;-67
2023/03/12 21:07:07;;;;;;;16.42;3.90;;;;;;;13.83;92.78;100355.78;5072416;28;20041;-67
2023/03/12 21:09:34;;;;;;;15.13;3.38;;;;;;;14.05;92.13;100355.34;5074203;28;20059;-66
2023/03/12 21:12:02;;;;;;;11.63;3.42;;;;;;;14.15;91.04;100344.63;5071339;28;20047;-68
2023/03/12 21:14:29;;;;;;;10.50;2.80;;;;;;;14.00;91.12;100341.75;5059286;28;20052;-67
2023/03/12 21:16:57;;;;;;;10.48;2.97;;;;;;;13.90;92.42;100340.22;5064522;28;20605;-70
2023/03/12 21:19:28;;;;;;;10.02;2.90;;;;;;;13.77;92.94;100348.84;5060823;28;20044;-69
2023/03/12 21:21:55;;;;;;;13.60;3.35;;;;;;;13.87;92.76;100348.41;5045191;28;20056;-67
2023/03/12 21:24:23;;;;;;;12.55;3.10;;;;;;;13.99;92.13;100340.91;5060624;28;20093;-67
2023/03/12 21:26:50;;;;;;;11.50;4.32;;;;;;;14.16;91.66;100332.38;5063830;28;20063;-68
2023/03/12 21:29:18;;;;;;;12.10;3.30;;;;;;;13.99;91.43;100338.16;5060019;28;20037;-70
2023/03/12 21:31:45;;;;;;;10.52;2.90;;;;;;;13.89;92.71;100332.25;5076150;28;20500;-69
2023/03/12 21:34:13;;;;;;;11.52;3.58;;;;;;;13.96;93.11;100329.72;5057977;28;20064;-68
2023/03/12 21:36:41;;;;;;;10.23;2.78;;;;;;;14.02;92.64;100331.09;5045599;28;20057;-67
2023/03/12 21:39:08;;;;;;;8.60;2.47;;;;;;;14.07;92.21;100339.22;5059880;28;20056;-69
2023/03/12 21:41:35;;;;;;;10.07;3.20;;;;;;;14.14;91.71;100343.00;5059906;28;20052;-70
2023/03/12 21:44:03;;;;;;;14.10;6.13;;;;;;;14.36;91.33;100331.50;5062814;28;20045;-72
2023/03/12 21:46:30;;;;;;;10.68;3.40;;;;;;;14.31;90.21;100323.38;5063665;28;20082;-70
2023/03/12 21:48:58;;;;;;;7.88;2.47;;;;;;;14.17;91.00;100324.88;5065676;28;20043;-71
2023/03/12 21:51:26;;;;;;;9.70;2.58;;;;;;;14.32;91.24;100324.22;5062999;28;20060;-70
2023/03/12 21:53:57;;;;;;;7.35;1.88;;;;;;;14.28;90.87;100323.28;5056848;28;20503;-70
2023/03/12 21:56:26;;;;;;;8.38;2.47;;;;;;;14.36;91.10;100336.22;5066573;28;20059;-68
2023/03/12 21:58:56;;;;;;;7.07;2.28;;;;;;;14.16;92.12;100329.59;5055050;28;20056;-66
2023/03/12 22:01:23;;;;;;;9.50;1.98;;;;;;;14.30;92.49;100326.50;5066743;28;20056;-66
2023/03/12 22:03:51;;;;;;;10.48;2.75;;;;;;;14.09;93.48;100318.31;5062746;28;20045;-67
2023/03/12 22:06:18;;;;;;;7.25;2.40;;;;;;;14.04;94.18;100320.50;5049991;28;20452;-67
2023/03/12 22:08:51;;;;;;;6.80;2.38;;;;;;;14.00;94.86;100320.38;5052625;28;20041;-68
2023/03/12 22:11:18;;;;;;;8.90;2.95;;;;;;;13.93;95.23;100333.19;5057686;28;20064;-68
2023/03/12 22:13:45;;;;;;;9.20;2.50;;;;;;;13.96;95.22;100335.25;5059533;28;20087;-67
2023/03/12 22:16:13;;;;;;;10.63;2.47;;;;;;;13.96;95.96;100338.03;5064283;28;20048;-68
2023/03/12 22:18:43;;;;;;;8.45;2.70;;;;;;;14.17;94.97;100333.19;5049958;28;20084;-67